Luxi, China
Current Conditions -  °F | °C
As of 1:00 PM on Sunday 23 Nov 2014 (Local Time) from ZPPP Reporting Station
Clear Clear  
Wind Chill: 63°   Ceiling: Unl
Heat Index: 63°   Visibility: 6mi
Dew Point: 37°   Wind: 25mph
Humidity: 39%   Direction: 230°SW
Pressure: 30.15"   Gusts: 36mph
Location:  24.53°N, 103.77°E
Report Text: ZPPP 230500Z 23011G16MPS CAVOK 17/03 Q1021 NOSIG
Loading
Personal Weather Stations






























Interactive Weather Map New forecast layout! Learn more

10-Day Weather Forecast

Advertisements
Track Severe Weather on mobile